Time;durP1;ratioP1;P1;durP2;ratioP2;P2;SDS_P1;SDS_P2;PMS_P1;PMS_P2;Temp;Humidity;BMP_temperature;BMP_pressure;BME280_temperature;BME280_humidity;BME280_pressure;Samples;Min_cycle;Max_cycle;Signal;HPM_P1;HPM_P2
2021/03/12 00:00:35;;;;;;;2.78;1.00;;;;;;;;;;5055344;28;20032;-76
2021/03/12 00:03:00;;;;;;;2.83;1.00;;;;;;;;;;5071862;28;20055;-76
2021/03/12 00:05:26;;;;;;;3.33;1.30;;;;;;;;;;5072486;28;20033;-76
2021/03/12 00:07:53;;;;;;;2.47;0.82;;;;;;;;;;5054947;28;20071;-76
2021/03/12 00:10:21;;;;;;;6.65;1.42;;;;;;;;;;5071696;28;20040;-76
2021/03/12 00:12:46;;;;;;;3.72;0.95;;;;;;;;;;5056740;28;20543;-76
2021/03/12 00:15:13;;;;;;;3.42;1.40;;;;;;;;;;5068269;28;20060;-75
2021/03/12 00:17:39;;;;;;;3.15;1.10;;;;;;;;;;5055047;28;20418;-76
2021/03/12 00:20:09;;;;;;;3.88;1.38;;;;;;;;;;5069884;28;20044;-75
2021/03/12 00:22:34;;;;;;;2.47;0.85;;;;;;;;;;5055469;28;20028;-76
2021/03/12 00:25:00;;;;;;;2.45;1.10;;;;;;;;;;5055002;28;20047;-76
2021/03/12 00:27:25;;;;;;;4.55;1.88;;;;;;;;;;5038656;28;20048;-76
2021/03/12 00:29:51;;;;;;;2.78;0.90;;;;;;;;;;5054322;28;20037;-76
2021/03/12 00:32:16;;;;;;;2.85;1.20;;;;;;;;;;5054540;28;20437;-76
2021/03/12 00:34:41;;;;;;;3.17;0.80;;;;;;;;;;5066096;28;20398;-76
2021/03/12 00:37:07;;;;;;;2.97;1.10;;;;;;;;;;5092552;28;20417;-76
2021/03/12 00:39:32;;;;;;;4.25;1.23;;;;;;;;;;5074316;28;20401;-76
2021/03/12 00:41:58;;;;;;;3.45;1.15;;;;;;;;;;5074147;28;20039;-75
2021/03/12 00:44:25;;;;;;;4.55;1.75;;;;;;;;;;5090584;28;20043;-75
2021/03/12 00:46:51;;;;;;;4.03;1.00;;;;;;;;;;5074627;28;20107;-75
2021/03/12 00:49:16;;;;;;;3.40;1.20;;;;;;;;;;5074560;28;20062;-76
2021/03/12 00:51:42;;;;;;;3.75;1.00;;;;;;;;;;5092172;28;20072;-76
2021/03/12 00:54:07;;;;;;;3.22;1.08;;;;;;;;;;5111390;28;20097;-75
2021/03/12 00:56:33;;;;;;;2.97;0.90;;;;;;;;;;5092464;28;20062;-75
2021/03/12 00:58:58;;;;;;;3.88;0.98;;;;;;;;;;5073715;28;20036;-76
2021/03/12 01:01:24;;;;;;;2.80;1.00;;;;;;;;;;5057660;28;20046;-75
2021/03/12 01:03:49;;;;;;;3.72;1.15;;;;;;;;;;5074231;28;20108;-76
2021/03/12 01:06:15;;;;;;;2.80;1.42;;;;;;;;;;5074115;28;20044;-76
2021/03/12 01:08:40;;;;;;;3.42;1.20;;;;;;;;;;5090328;28;20387;-75
2021/03/12 01:11:06;;;;;;;2.92;0.85;;;;;;;;;;5073895;28;20410;-75
2021/03/12 01:13:31;;;;;;;3.80;1.30;;;;;;;;;;5057343;28;20448;-76
2021/03/12 01:15:56;;;;;;;4.05;1.63;;;;;;;;;;5038361;28;20445;-75
2021/03/12 01:18:22;;;;;;;3.00;0.80;;;;;;;;;;5070154;28;20102;-76
2021/03/12 01:20:47;;;;;;;4.05;0.95;;;;;;;;;;5066523;28;20441;-75
2021/03/12 01:23:13;;;;;;;2.35;0.82;;;;;;;;;;5062371;28;20394;-75
2021/03/12 01:25:43;;;;;;;3.72;1.17;;;;;;;;;;5053879;28;20044;-76
2021/03/12 01:28:08;;;;;;;3.75;0.90;;;;;;;;;;5054791;28;20032;-76
2021/03/12 01:30:35;;;;;;;2.83;0.80;;;;;;;;;;5090747;28;20032;-75
2021/03/12 01:33:01;;;;;;;3.83;1.17;;;;;;;;;;5040951;28;20028;-75
2021/03/12 01:35:26;;;;;;;4.35;1.38;;;;;;;;;;5088279;28;20089;-75
2021/03/12 01:37:52;;;;;;;5.55;1.27;;;;;;;;;;5065379;28;20115;-75
2021/03/12 01:40:19;;;;;;;3.50;1.20;;;;;;;;;;5053158;28;20414;-75
2021/03/12 01:42:44;;;;;;;3.10;0.95;;;;;;;;;;5036923;28;20055;-75
2021/03/12 01:45:15;;;;;;;3.60;1.00;;;;;;;;;;5070252;28;20133;-75
2021/03/12 01:47:41;;;;;;;2.97;1.00;;;;;;;;;;5070287;28;20032;-75
2021/03/12 01:50:07;;;;;;;2.58;0.80;;;;;;;;;;5070113;28;20094;-75
2021/03/12 01:52:32;;;;;;;3.65;1.45;;;;;;;;;;5094647;28;20100;-75
2021/03/12 01:54:58;;;;;;;4.00;1.00;;;;;;;;;;5080688;28;20530;-75
2021/03/12 01:57:23;;;;;;;4.82;1.23;;;;;;;;;;5070614;28;20099;-75
2021/03/12 01:59:49;;;;;;;3.90;1.40;;;;;;;;;;5053216;28;20048;-75
2021/03/12 02:02:14;;;;;;;4.78;1.15;;;;;;;;;;5070628;28;20067;-76
2021/03/12 02:04:40;;;;;;;5.28;1.55;;;;;;;;;;5070175;28;20494;-76
2021/03/12 02:07:05;;;;;;;5.50;2.13;;;;;;;;;;5069949;28;20414;-76
2021/03/12 02:09:31;;;;;;;3.47;0.90;;;;;;;;;;5052928;28;20406;-76
2021/03/12 02:12:17;;;;;;;3.85;1.77;;;;;;;;;;5053413;28;20044;-75
2021/03/12 02:15:08;;;;;;;3.20;1.10;;;;;;;;;;5064744;28;20041;-76
2021/03/12 02:17:44;;;;;;;4.55;1.23;;;;;;;;;;5066697;28;20070;-76
2021/03/12 02:20:15;;;;;;;3.35;1.30;;;;;;;;;;5054858;28;20040;-75
2021/03/12 02:22:41;;;;;;;3.55;1.00;;;;;;;;;;5095209;28;20046;-75
2021/03/12 02:25:09;;;;;;;3.50;0.80;;;;;;;;;;5042162;28;20131;-75
2021/03/12 02:27:35;;;;;;;3.22;1.10;;;;;;;;;;5057322;28;20041;-76
2021/03/12 02:30:00;;;;;;;4.65;1.25;;;;;;;;;;5073449;28;20078;-76
2021/03/12 02:32:32;;;;;;;5.03;1.30;;;;;;;;;;5073391;28;20422;-76
2021/03/12 02:35:10;;;;;;;4.68;1.27;;;;;;;;;;5057220;28;20052;-75
2021/03/12 02:37:36;;;;;;;5.95;1.35;;;;;;;;;;5073410;28;20079;-76
2021/03/12 02:40:02;;;;;;;3.20;0.93;;;;;;;;;;5089021;28;20044;-76
2021/03/12 02:42:27;;;;;;;3.22;0.98;;;;;;;;;;5065593;28;20044;-76
2021/03/12 02:44:53;;;;;;;4.05;1.00;;;;;;;;;;5073406;28;20040;-76
2021/03/12 02:47:28;;;;;;;3.25;0.85;;;;;;;;;;5056966;28;20052;-76
2021/03/12 02:49:53;;;;;;;3.05;0.80;;;;;;;;;;5056494;28;20059;-76
2021/03/12 02:52:19;;;;;;;3.97;1.10;;;;;;;;;;5084426;28;20115;-76
2021/03/12 02:54:44;;;;;;;1.92;0.68;;;;;;;;;;5076694;28;20736;-76
2021/03/12 02:57:11;;;;;;;4.07;1.17;;;;;;;;;;5076786;28;20121;-76
2021/03/12 02:59:36;;;;;;;3.60;0.95;;;;;;;;;;5093061;28;20032;-76
2021/03/12 03:02:02;;;;;;;4.22;1.08;;;;;;;;;;5057567;28;20036;-76
2021/03/12 03:04:27;;;;;;;3.55;1.05;;;;;;;;;;5057757;28;20556;-76
2021/03/12 03:06:53;;;;;;;4.15;1.45;;;;;;;;;;5056373;28;20056;-76
2021/03/12 03:09:18;;;;;;;4.68;1.40;;;;;;;;;;5072192;28;20040;-76
2021/03/12 03:11:44;;;;;;;3.30;1.10;;;;;;;;;;5072817;28;20056;-77
2021/03/12 03:14:10;;;;;;;3.80;1.33;;;;;;;;;;5072860;28;20048;-76
2021/03/12 03:16:36;;;;;;;4.35;1.13;;;;;;;;;;5043227;28;20049;-76
2021/03/12 03:19:02;;;;;;;3.53;1.08;;;;;;;;;;5055996;28;20025;-76
2021/03/12 03:21:27;;;;;;;3.78;0.95;;;;;;;;;;5072371;28;20426;-76
2021/03/12 03:23:53;;;;;;;4.55;0.98;;;;;;;;;;5056444;28;20697;-76
2021/03/12 03:26:18;;;;;;;4.68;1.20;;;;;;;;;;5043884;28;20051;-76
2021/03/12 03:28:43;;;;;;;4.10;0.95;;;;;;;;;;5075825;28;20085;-76
2021/03/12 03:31:09;;;;;;;4.03;1.35;;;;;;;;;;5056034;28;20067;-76
2021/03/12 03:33:34;;;;;;;3.60;1.20;;;;;;;;;;5055685;28;20410;-76
2021/03/12 03:36:00;;;;;;;3.55;0.93;;;;;;;;;;5072391;28;20044;-75
2021/03/12 03:38:26;;;;;;;4.80;1.38;;;;;;;;;;5038253;28;20036;-76
2021/03/12 03:40:52;;;;;;;4.22;1.50;;;;;;;;;;5074231;28;20089;-76
2021/03/12 03:43:23;;;;;;;5.93;1.67;;;;;;;;;;5072718;28;20089;-75
2021/03/12 03:45:48;;;;;;;5.07;1.30;;;;;;;;;;5056078;28;20082;-76
2021/03/12 03:48:14;;;;;;;6.65;1.08;;;;;;;;;;5055763;28;20445;-76
2021/03/12 03:50:39;;;;;;;6.28;1.60;;;;;;;;;;5055279;28;20448;-76
2021/03/12 03:53:05;;;;;;;3.05;1.08;;;;;;;;;;5071689;28;20409;-76
2021/03/12 03:55:31;;;;;;;4.90;1.33;;;;;;;;;;5077966;28;20036;-76
2021/03/12 03:57:57;;;;;;;4.57;1.60;;;;;;;;;;5072061;28;20039;-76
2021/03/12 04:00:23;;;;;;;3.47;1.30;;;;;;;;;;5071861;28;20414;-76
2021/03/12 04:02:48;;;;;;;6.00;1.55;;;;;;;;;;5072204;28;20033;-75
2021/03/12 04:05:14;;;;;;;4.75;1.48;;;;;;;;;;5071828;28;20037;-75
2021/03/12 04:07:40;;;;;;;5.13;1.27;;;;;;;;;;5054438;28;20048;-76
2021/03/12 04:10:05;;;;;;;4.53;1.48;;;;;;;;;;5071814;28;20067;-75
2021/03/12 04:12:31;;;;;;;2.47;0.80;;;;;;;;;;5072114;28;20498;-76
2021/03/12 04:14:57;;;;;;;3.97;1.13;;;;;;;;;;5055617;28;20094;-76
2021/03/12 04:17:22;;;;;;;4.03;1.02;;;;;;;;;;5075038;28;20115;-76
2021/03/12 04:19:47;;;;;;;3.17;1.00;;;;;;;;;;5091731;28;20456;-76
2021/03/12 04:22:13;;;;;;;5.05;1.42;;;;;;;;;;5057813;28;20039;-75
2021/03/12 04:24:39;;;;;;;3.38;1.38;;;;;;;;;;5058423;28;20440;-76
2021/03/12 04:27:05;;;;;;;4.13;1.30;;;;;;;;;;5075353;28;20877;-76
2021/03/12 04:29:31;;;;;;;5.28;1.30;;;;;;;;;;5073944;28;20044;-76
2021/03/12 04:31:56;;;;;;;4.55;1.08;;;;;;;;;;5051291;28;20043;-75
2021/03/12 04:34:22;;;;;;;4.50;1.70;;;;;;;;;;5054527;28;20134;-76
2021/03/12 04:36:48;;;;;;;4.60;1.27;;;;;;;;;;5071103;28;20047;-76
2021/03/12 04:39:13;;;;;;;3.80;1.08;;;;;;;;;;5070735;28;20119;-75
2021/03/12 04:41:39;;;;;;;5.28;1.60;;;;;;;;;;5061420;28;20036;-75
2021/03/12 04:44:05;;;;;;;4.50;1.42;;;;;;;;;;5053589;28;20037;-75
2021/03/12 04:46:30;;;;;;;4.70;1.50;;;;;;;;;;5072311;28;20082;-76
2021/03/12 04:48:56;;;;;;;5.22;1.27;;;;;;;;;;5060743;28;20071;-75
2021/03/12 04:51:21;;;;;;;3.45;0.95;;;;;;;;;;5072042;28;20383;-76
2021/03/12 04:53:47;;;;;;;5.40;1.27;;;;;;;;;;5088647;28;20526;-76
2021/03/12 04:56:13;;;;;;;4.63;1.40;;;;;;;;;;5054304;28;20088;-76
2021/03/12 04:58:39;;;;;;;3.17;1.05;;;;;;;;;;5054303;28;20403;-76
2021/03/12 05:01:08;;;;;;;3.13;0.90;;;;;;;;;;5037183;28;20036;-75
2021/03/12 05:03:33;;;;;;;3.78;1.00;;;;;;;;;;5037439;28;20501;-75
2021/03/12 05:05:58;;;;;;;4.68;1.88;;;;;;;;;;5054320;28;20111;-76
2021/03/12 05:08:24;;;;;;;5.05;1.30;;;;;;;;;;5053613;28;20037;-76
2021/03/12 05:11:16;;;;;;;4.20;1.40;;;;;;;;;;5056209;28;20037;-76
2021/03/12 05:13:42;;;;;;;5.97;1.53;;;;;;;;;;5073728;28;20050;-76
2021/03/12 05:16:07;;;;;;;5.15;1.20;;;;;;;;;;5057266;28;20040;-76
2021/03/12 05:18:33;;;;;;;2.95;1.38;;;;;;;;;;5090532;28;20406;-76
2021/03/12 05:20:58;;;;;;;4.95;1.23;;;;;;;;;;5056984;28;20044;-76
2021/03/12 05:23:23;;;;;;;4.47;1.20;;;;;;;;;;5073420;28;20402;-76
2021/03/12 05:25:49;;;;;;;3.25;0.88;;;;;;;;;;5053214;28;20418;-76
2021/03/12 05:28:15;;;;;;;3.38;0.82;;;;;;;;;;5037114;28;20043;-76
2021/03/12 05:30:41;;;;;;;4.28;1.58;;;;;;;;;;5054273;28;20041;-76
2021/03/12 05:33:06;;;;;;;6.45;1.00;;;;;;;;;;5053249;28;20089;-75
2021/03/12 05:35:32;;;;;;;3.42;1.15;;;;;;;;;;5070538;28;20036;-76
2021/03/12 05:37:57;;;;;;;4.22;1.00;;;;;;;;;;5086894;28;20047;-76
2021/03/12 05:40:23;;;;;;;5.53;1.45;;;;;;;;;;5073431;28;20494;-76
2021/03/12 05:42:51;;;;;;;4.25;0.88;;;;;;;;;;5073921;28;20035;-77
2021/03/12 05:45:17;;;;;;;3.03;1.10;;;;;;;;;;5073924;28;20498;-75
2021/03/12 05:47:42;;;;;;;6.05;1.30;;;;;;;;;;5035131;28;20055;-76
2021/03/12 05:50:08;;;;;;;4.38;1.20;;;;;;;;;;5059876;28;20045;-76
2021/03/12 05:52:33;;;;;;;4.95;1.20;;;;;;;;;;5048034;28;20043;-76
2021/03/12 05:55:02;;;;;;;6.13;1.42;;;;;;;;;;5055003;28;20055;-76
2021/03/12 05:57:28;;;;;;;4.47;1.35;;;;;;;;;;5041212;28;20082;-76
2021/03/12 05:59:53;;;;;;;4.72;1.15;;;;;;;;;;5040935;28;20032;-76
2021/03/12 06:02:19;;;;;;;4.65;1.00;;;;;;;;;;5057513;28;20074;-77
2021/03/12 06:04:50;;;;;;;4.78;1.77;;;;;;;;;;5061628;28;20099;-78
2021/03/12 06:07:16;;;;;;;3.65;1.23;;;;;;;;;;5069742;28;20058;-77
2021/03/12 06:09:45;;;;;;;6.18;2.05;;;;;;;;;;5055806;28;20062;-79
2021/03/12 06:12:12;;;;;;;3.75;1.08;;;;;;;;;;5059986;28;20036;-77
2021/03/12 06:14:54;;;;;;;16.95;2.03;;;;;;;;;;5041013;28;20029;-78
2021/03/12 06:17:43;;;;;;;10.30;1.98;;;;;;;;;;5077210;28;20131;-77
2021/03/12 06:20:18;;;;;;;9.35;1.67;;;;;;;;;;5077707;28;20497;-77
2021/03/12 06:22:47;;;;;;;5.75;1.30;;;;;;;;;;5077799;28;20044;-77
2021/03/12 06:25:14;;;;;;;12.50;1.83;;;;;;;;;;5076952;28;20050;-77
2021/03/12 06:27:40;;;;;;;11.02;2.42;;;;;;;;;;5077346;28;20078;-77
2021/03/12 06:30:06;;;;;;;5.70;1.33;;;;;;;;;;5060560;28;20498;-77
2021/03/12 06:32:39;;;;;;;9.18;2.30;;;;;;;;;;5056908;28;20694;-77
2021/03/12 06:35:05;;;;;;;35.10;31.42;;;;;;;;;;5058449;28;20021;-77
2021/03/12 06:37:30;;;;;;;44.45;40.10;;;;;;;;;;5029715;28;20688;-77
2021/03/12 06:39:57;;;;;;;31.60;28.30;;;;;;;;;;5042699;28;20028;-77
2021/03/12 06:42:22;;;;;;;26.85;24.25;;;;;;;;;;5077077;28;20046;-77
2021/03/12 06:44:47;;;;;;;29.25;24.10;;;;;;;;;;5060057;28;20402;-77
2021/03/12 06:47:22;;;;;;;24.58;22.00;;;;;;;;;;5048895;28;20037;-77
2021/03/12 06:49:55;;;;;;;25.13;22.60;;;;;;;;;;5050928;28;20384;-77
2021/03/12 06:52:33;;;;;;;23.90;21.48;;;;;;;;;;5072826;28;20031;-77
2021/03/12 06:54:58;;;;;;;24.27;19.08;;;;;;;;;;5085198;28;20070;-77
2021/03/12 06:57:24;;;;;;;21.58;18.77;;;;;;;;;;5049457;28;20033;-77
2021/03/12 07:00:05;;;;;;;23.27;18.83;;;;;;;;;;5039337;28;20032;-77
2021/03/12 07:02:35;;;;;;;18.92;16.90;;;;;;;;;;5074853;28;20037;-77
2021/03/12 07:05:01;;;;;;;19.30;17.33;;;;;;;;;;5096969;28;20038;-77
2021/03/12 07:07:34;;;;;;;17.67;15.13;;;;;;;;;;5078702;28;20052;-77
2021/03/12 07:09:59;;;;;;;19.63;15.82;;;;;;;;;;5063250;28;20072;-77
2021/03/12 07:12:44;;;;;;;16.38;14.27;;;;;;;;;;5079480;28;20409;-77
2021/03/12 07:15:11;;;;;;;18.05;14.13;;;;;;;;;;5058722;28;20029;-79
2021/03/12 07:17:36;;;;;;;20.05;14.30;;;;;;;;;;5051911;28;20041;-78
2021/03/12 07:20:05;;;;;;;22.35;13.88;;;;;;;;;;5056192;28;20063;-78
2021/03/12 07:22:30;;;;;;;21.73;11.48;;;;;;;;;;5042791;28;20422;-78
2021/03/12 07:24:56;;;;;;;19.27;13.07;;;;;;;;;;5052247;28;20032;-78
2021/03/12 07:27:21;;;;;;;17.27;10.95;;;;;;;;;;5076004;28;20040;-78
2021/03/12 07:29:46;;;;;;;15.35;10.38;;;;;;;;;;5074885;28;20051;-78
2021/03/12 07:32:12;;;;;;;12.88;8.35;;;;;;;;;;5072316;28;20401;-78
2021/03/12 07:34:39;;;;;;;11.68;5.90;;;;;;;;;;5066336;28;20405;-79
2021/03/12 07:37:04;;;;;;;10.50;5.60;;;;;;;;;;5043344;28;20036;-78
2021/03/12 07:39:40;;;;;;;10.80;4.95;;;;;;;;;;5061332;28;20386;-78
2021/03/12 07:42:16;;;;;;;10.52;4.75;;;;;;;;;;5060117;28;20071;-78
2021/03/12 07:44:45;;;;;;;11.75;5.50;;;;;;;;;;5037809;28;20036;-79
2021/03/12 07:47:12;;;;;;;11.30;4.30;;;;;;;;;;5050363;28;20055;-78
2021/03/12 07:49:38;;;;;;;8.35;4.93;;;;;;;;;;5057200;28;20028;-79
2021/03/12 07:52:04;;;;;;;10.38;4.03;;;;;;;;;;5058879;28;20174;-78
2021/03/12 07:54:35;;;;;;;8.68;4.35;;;;;;;;;;5022277;28;20025;-75
2021/03/12 07:57:04;;;;;;;9.63;4.40;;;;;;;;;;5088781;28;20568;-75
2021/03/12 07:59:47;;;;;;;9.65;4.40;;;;;;;;;;5054697;28;20043;-76
2021/03/12 08:02:16;;;;;;;10.25;4.38;;;;;;;;;;5088543;28;20033;-75
2021/03/12 08:04:43;;;;;;;11.25;3.92;;;;;;;;;;5072124;28;20090;-78
2021/03/12 08:07:20;;;;;;;8.45;3.75;;;;;;;;;;5071619;28;20028;-77
2021/03/12 08:09:52;;;;;;;10.85;3.97;;;;;;;;;;5055116;28;20036;-77
2021/03/12 08:12:40;;;;;;;8.82;3.42;;;;;;;;;;5054612;28;20028;-77
2021/03/12 08:15:17;;;;;;;7.68;3.53;;;;;;;;;;5056717;28;20101;-78
2021/03/12 08:17:42;;;;;;;6.57;3.30;;;;;;;;;;5055275;28;20032;-78
2021/03/12 08:20:26;;;;;;;8.98;3.55;;;;;;;;;;5020952;28;20032;-77
2021/03/12 08:22:58;;;;;;;8.32;3.40;;;;;;;;;;5071230;28;20090;-78
2021/03/12 08:25:32;;;;;;;8.23;3.22;;;;;;;;;;5077393;28;20036;-77
2021/03/12 08:27:58;;;;;;;10.18;3.53;;;;;;;;;;5075207;28;20033;-78
2021/03/12 08:30:24;;;;;;;8.15;3.53;;;;;;;;;;5021154;28;20123;-78
2021/03/12 08:32:50;;;;;;;7.13;3.15;;;;;;;;;;5075656;28;20059;-77
2021/03/12 08:35:38;;;;;;;7.30;3.63;;;;;;;;;;5058206;28;20059;-80
2021/03/12 08:38:22;;;;;;;9.15;2.97;;;;;;;;;;5091113;28;20051;-78
2021/03/12 08:41:12;;;;;;;7.93;3.13;;;;;;;;;;5074513;28;20024;-78
2021/03/12 08:43:52;;;;;;;6.35;3.25;;;;;;;;;;5071118;28;20116;-78
2021/03/12 08:46:25;;;;;;;8.70;2.88;;;;;;;;;;5055902;28;20385;-78
2021/03/12 08:48:55;;;;;;;6.55;2.65;;;;;;;;;;5067570;28;20061;-78
2021/03/12 08:51:22;;;;;;;6.05;2.53;;;;;;;;;;5058363;28;20062;-78
2021/03/12 08:53:56;;;;;;;8.15;2.38;;;;;;;;;;5061117;28;20086;-78
2021/03/12 08:56:48;;;;;;;8.93;2.97;;;;;;;;;;5094638;28;20537;-78
2021/03/12 08:59:13;;;;;;;7.63;2.60;;;;;;;;;;5091073;28;20131;-78
2021/03/12 09:01:39;;;;;;;6.70;2.40;;;;;;;;;;5053838;28;20061;-78
2021/03/12 09:04:05;;;;;;;7.90;2.85;;;;;;;;;;5037666;28;20094;-78
2021/03/12 09:06:32;;;;;;;6.80;2.50;;;;;;;;;;5056362;28;20126;-78
2021/03/12 09:08:57;;;;;;;6.60;2.60;;;;;;;;;;5052884;28;20518;-78
2021/03/12 09:11:24;;;;;;;5.68;2.40;;;;;;;;;;5053528;28;20170;-78
2021/03/12 09:13:50;;;;;;;6.65;2.13;;;;;;;;;;5072170;28;20032;-78
2021/03/12 09:16:24;;;;;;;6.38;2.47;;;;;;;;;;5052097;28;20051;-79
2021/03/12 09:18:50;;;;;;;7.13;2.58;;;;;;;;;;5043376;28;20055;-79
2021/03/12 09:21:18;;;;;;;7.80;2.42;;;;;;;;;;5023577;28;20120;-79
2021/03/12 09:24:13;;;;;;;5.30;1.73;;;;;;;;;;5037082;28;20040;-78
2021/03/12 09:26:38;;;;;;;8.43;3.00;;;;;;;;;;5045887;28;20036;-79
2021/03/12 09:29:05;;;;;;;7.05;2.33;;;;;;;;;;5070697;28;20051;-78
2021/03/12 09:31:35;;;;;;;6.35;2.10;;;;;;;;;;5055104;28;20110;-79
2021/03/12 09:34:01;;;;;;;7.57;2.53;;;;;;;;;;5057822;28;20397;-78
2021/03/12 09:36:35;;;;;;;12.15;4.70;;;;;;;;;;5071885;28;20036;-79
2021/03/12 09:39:16;;;;;;;15.05;6.07;;;;;;;;;;5056647;28;20044;-78
2021/03/12 09:41:43;;;;;;;10.93;4.82;;;;;;;;;;5058599;28;20064;-79
2021/03/12 09:44:09;;;;;;;11.35;5.03;;;;;;;;;;5073562;28;20032;-79
2021/03/12 09:46:36;;;;;;;10.32;5.75;;;;;;;;;;5056928;28;20558;-79
2021/03/12 09:49:16;;;;;;;10.27;4.28;;;;;;;;;;5053723;28;20032;-79
2021/03/12 09:51:43;;;;;;;10.93;5.13;;;;;;;;;;5063763;28;20172;-78
2021/03/12 09:54:10;;;;;;;9.38;5.50;;;;;;;;;;5076594;28;20034;-79
2021/03/12 09:56:35;;;;;;;8.45;4.20;;;;;;;;;;5053371;28;20040;-79
2021/03/12 09:59:02;;;;;;;10.73;4.78;;;;;;;;;;5069887;28;20028;-80
2021/03/12 10:01:38;;;;;;;10.75;4.18;;;;;;;;;;5053534;28;20029;-80
2021/03/12 10:04:26;;;;;;;7.00;3.50;;;;;;;;;;5037291;28;20039;-79
2021/03/12 10:07:14;;;;;;;8.85;3.42;;;;;;;;;;5070335;28;20450;-79
2021/03/12 10:09:44;;;;;;;8.55;3.28;;;;;;;;;;5037231;28;20055;-79
2021/03/12 10:12:29;;;;;;;8.52;3.13;;;;;;;;;;5036997;28;20058;-80
2021/03/12 10:15:11;;;;;;;13.52;4.30;;;;;;;;;;5084866;28;20036;-77
2021/03/12 10:17:40;;;;;;;9.50;4.40;;;;;;;;;;5057387;28;20044;-76
2021/03/12 10:20:08;;;;;;;7.60;3.35;;;;;;;;;;5040289;28;20175;-76
2021/03/12 10:22:41;;;;;;;8.18;3.58;;;;;;;;;;5072920;28;20042;-76
2021/03/12 10:25:26;;;;;;;7.38;3.53;;;;;;;;;;5090074;28;20032;-80
2021/03/12 10:27:57;;;;;;;7.68;3.33;;;;;;;;;;5070111;28;20036;-80
2021/03/12 10:30:36;;;;;;;7.18;2.95;;;;;;;;;;5073482;28;20098;-81
2021/03/12 10:33:03;;;;;;;6.65;3.38;;;;;;;;;;5033443;28;20056;-79
2021/03/12 10:35:30;;;;;;;9.23;3.00;;;;;;;;;;5056655;28;20047;-80
2021/03/12 10:37:58;;;;;;;7.55;2.92;;;;;;;;;;5044559;28;20044;-80
2021/03/12 10:40:24;;;;;;;8.48;3.28;;;;;;;;;;5051592;28;20123;-80
2021/03/12 10:42:49;;;;;;;5.90;2.75;;;;;;;;;;5053017;28;20426;-80
2021/03/12 10:45:19;;;;;;;9.63;3.35;;;;;;;;;;5039854;28;20506;-80
2021/03/12 10:47:56;;;;;;;8.43;3.03;;;;;;;;;;5055753;28;20037;-80
2021/03/12 10:50:22;;;;;;;7.95;2.47;;;;;;;;;;5072793;28;20085;-80
2021/03/12 10:52:47;;;;;;;6.63;2.30;;;;;;;;;;5067348;28;20173;-80
2021/03/12 10:55:13;;;;;;;9.00;3.58;;;;;;;;;;5080246;28;20035;-79
2021/03/12 10:57:39;;;;;;;7.82;3.03;;;;;;;;;;5080488;28;20039;-80
2021/03/12 11:00:07;;;;;;;7.07;3.13;;;;;;;;;;5095518;28;20031;-80
2021/03/12 11:02:36;;;;;;;7.10;2.67;;;;;;;;;;5080199;28;20039;-80
2021/03/12 11:05:02;;;;;;;7.07;2.40;;;;;;;;;;5080540;28;20032;-79
2021/03/12 11:07:28;;;;;;;7.00;2.40;;;;;;;;;;5062502;28;20451;-80
2021/03/12 11:09:53;;;;;;;6.95;2.70;;;;;;;;;;5096507;28;20140;-81
2021/03/12 11:12:19;;;;;;;7.82;2.20;;;;;;;;;;5113539;28;20043;-80
2021/03/12 11:14:44;;;;;;;7.28;2.40;;;;;;;;;;5062585;28;20081;-80
2021/03/12 11:17:10;;;;;;;7.35;2.33;;;;;;;;;;5039760;28;20056;-80
2021/03/12 11:19:35;;;;;;;4.90;2.22;;;;;;;;;;5039560;28;20043;-80
2021/03/12 11:22:00;;;;;;;6.03;2.53;;;;;;;;;;5038661;28;20127;-80
2021/03/12 11:24:26;;;;;;;6.00;2.10;;;;;;;;;;5057223;28;20055;-80
2021/03/12 11:26:51;;;;;;;9.60;3.13;;;;;;;;;;5068781;28;20044;-80
2021/03/12 11:29:17;;;;;;;5.75;3.03;;;;;;;;;;5056215;28;20111;-80
2021/03/12 11:31:42;;;;;;;5.60;2.00;;;;;;;;;;5056033;28;20037;-80
2021/03/12 11:34:08;;;;;;;5.72;2.17;;;;;;;;;;5038965;28;20076;-80
2021/03/12 11:36:34;;;;;;;5.60;2.33;;;;;;;;;;5055157;28;20478;-80
2021/03/12 11:38:59;;;;;;;5.75;1.92;;;;;;;;;;5055382;28;20528;-80
2021/03/12 11:41:24;;;;;;;4.78;2.15;;;;;;;;;;5055676;28;20044;-80
2021/03/12 11:43:50;;;;;;;4.35;1.90;;;;;;;;;;5055568;28;20114;-80
2021/03/12 11:46:15;;;;;;;6.18;2.08;;;;;;;;;;5072903;28;20487;-80
2021/03/12 11:48:41;;;;;;;5.15;1.75;;;;;;;;;;5055559;28;20036;-80
2021/03/12 11:51:07;;;;;;;7.47;2.40;;;;;;;;;;5073005;28;20028;-80
2021/03/12 11:53:33;;;;;;;6.60;1.95;;;;;;;;;;5070946;28;20094;-80
2021/03/12 11:55:59;;;;;;;5.47;2.42;;;;;;;;;;5055626;28;20040;-78
2021/03/12 11:58:24;;;;;;;6.43;2.28;;;;;;;;;;5054786;28;20406;-79
2021/03/12 12:00:50;;;;;;;4.00;1.40;;;;;;;;;;5055032;28;20037;-78
2021/03/12 12:03:16;;;;;;;7.05;1.80;;;;;;;;;;5055580;28;20529;-79
2021/03/12 12:05:41;;;;;;;5.25;1.80;;;;;;;;;;5055176;28;20036;-79
2021/03/12 12:08:07;;;;;;;4.20;1.92;;;;;;;;;;5054927;28;20036;-79
2021/03/12 12:10:32;;;;;;;4.40;1.70;;;;;;;;;;5055077;28;20041;-79
2021/03/12 12:12:59;;;;;;;4.53;1.75;;;;;;;;;;5055229;28;20032;-80
2021/03/12 12:15:27;;;;;;;7.20;1.60;;;;;;;;;;5053443;28;20047;-80
2021/03/12 12:18:00;;;;;;;3.95;1.48;;;;;;;;;;5072284;28;20037;-79
2021/03/12 12:20:25;;;;;;;;;;;;;;;;;;5075069;28;20044;-79
2021/03/12 12:22:50;;;;;;;5.20;1.80;;;;;;;;;;5090694;28;20381;-79
2021/03/12 12:25:17;;;;;;;6.93;1.75;;;;;;;;;;5054897;28;20085;-79
2021/03/12 12:27:42;;;;;;;5.60;1.92;;;;;;;;;;5063173;28;20110;-79
2021/03/12 12:30:08;;;;;;;6.15;1.73;;;;;;;;;;5042008;28;20119;-80
2021/03/12 12:32:34;;;;;;;4.25;1.80;;;;;;;;;;5060771;28;20461;-80
2021/03/12 12:35:00;;;;;;;5.78;1.80;;;;;;;;;;5021598;28;20037;-79
2021/03/12 12:37:25;;;;;;;6.65;2.35;;;;;;;;;;5037279;28;20059;-79
2021/03/12 12:39:50;;;;;;;5.63;1.70;;;;;;;;;;5054390;28;20050;-79
2021/03/12 12:42:16;;;;;;;5.05;1.33;;;;;;;;;;5054426;28;20036;-78
2021/03/12 12:44:41;;;;;;;6.20;1.92;;;;;;;;;;5037952;28;20032;-79
2021/03/12 12:47:07;;;;;;;4.97;1.30;;;;;;;;;;5037931;28;20040;-79
2021/03/12 12:49:32;;;;;;;11.13;1.88;;;;;;;;;;5037027;28;20107;-79
2021/03/12 12:51:58;;;;;;;4.32;1.20;;;;;;;;;;5066860;28;20492;-78
2021/03/12 12:54:23;;;;;;;5.20;1.48;;;;;;;;;;5061161;28;20035;-79
2021/03/12 12:56:48;;;;;;;3.78;1.42;;;;;;;;;;5061148;28;20126;-79
2021/03/12 12:59:14;;;;;;;6.25;1.38;;;;;;;;;;5077460;28;20027;-79
2021/03/12 13:01:39;;;;;;;4.20;1.42;;;;;;;;;;5061083;28;20039;-79
2021/03/12 13:04:05;;;;;;;7.38;1.52;;;;;;;;;;5076898;28;20036;-79
2021/03/12 13:06:30;;;;;;;6.07;2.10;;;;;;;;;;5070671;28;20036;-80
2021/03/12 13:08:56;;;;;;;5.05;1.65;;;;;;;;;;5021024;28;20131;-79
2021/03/12 13:11:21;;;;;;;4.13;1.35;;;;;;;;;;5054078;28;20033;-79
2021/03/12 13:13:46;;;;;;;5.28;1.40;;;;;;;;;;5039557;28;20039;-79
2021/03/12 13:16:16;;;;;;;6.72;1.95;;;;;;;;;;5037323;28;20029;-79
2021/03/12 13:18:41;;;;;;;6.45;1.55;;;;;;;;;;5037844;28;20127;-79
2021/03/12 13:21:08;;;;;;;4.35;1.40;;;;;;;;;;5053168;28;20105;-79
2021/03/12 13:23:34;;;;;;;4.18;1.08;;;;;;;;;;5037413;28;20044;-79
2021/03/12 13:26:00;;;;;;;4.88;1.30;;;;;;;;;;5054503;28;20041;-79
2021/03/12 13:28:25;;;;;;;4.85;1.65;;;;;;;;;;5057278;28;20048;-79
2021/03/12 13:30:51;;;;;;;5.22;1.33;;;;;;;;;;5057283;28;20044;-80
2021/03/12 13:33:16;;;;;;;4.50;1.10;;;;;;;;;;5040618;28;20028;-79
2021/03/12 13:35:42;;;;;;;3.63;1.25;;;;;;;;;;5056837;28;20028;-80
2021/03/12 13:38:07;;;;;;;5.50;1.60;;;;;;;;;;5052378;28;20086;-80
2021/03/12 13:40:33;;;;;;;6.35;1.52;;;;;;;;;;5053478;28;20521;-80
2021/03/12 13:43:01;;;;;;;5.25;1.33;;;;;;;;;;5037287;28;20049;-80
2021/03/12 13:45:26;;;;;;;4.25;1.17;;;;;;;;;;5020983;28;20056;-79
2021/03/12 13:47:52;;;;;;;3.53;1.20;;;;;;;;;;5053709;28;20036;-80
2021/03/12 13:50:17;;;;;;;7.50;1.65;;;;;;;;;;5036243;28;20056;-80
2021/03/12 13:52:43;;;;;;;4.20;1.13;;;;;;;;;;5063796;28;20035;-80
2021/03/12 13:55:09;;;;;;;6.15;1.40;;;;;;;;;;5060374;28;20077;-80
2021/03/12 13:57:35;;;;;;;7.32;1.88;;;;;;;;;;5060441;28;20031;-81
2021/03/12 14:00:00;;;;;;;4.85;1.67;;;;;;;;;;5076653;28;20447;-81
2021/03/12 14:02:25;;;;;;;5.00;1.15;;;;;;;;;;5056055;28;20047;-81
2021/03/12 14:04:51;;;;;;;5.63;1.58;;;;;;;;;;5040389;28;20032;-81
2021/03/12 14:07:16;;;;;;;6.20;1.42;;;;;;;;;;5073176;28;20040;-82
2021/03/12 14:09:42;;;;;;;5.85;1.15;;;;;;;;;;5057081;28;20116;-82
2021/03/12 14:12:08;;;;;;;4.47;1.73;;;;;;;;;;5040008;28;20048;-82
2021/03/12 14:14:33;;;;;;;5.07;1.60;;;;;;;;;;5036342;28;20033;-82
2021/03/12 14:16:58;;;;;;;4.45;0.95;;;;;;;;;;5040264;28;20501;-83
2021/03/12 14:19:24;;;;;;;4.22;1.40;;;;;;;;;;5074180;28;20111;-83
2021/03/12 14:21:49;;;;;;;5.90;1.20;;;;;;;;;;5023840;28;20055;-82
2021/03/12 14:24:15;;;;;;;4.05;1.52;;;;;;;;;;5040808;28;20033;-83
2021/03/12 14:26:44;;;;;;;4.18;1.33;;;;;;;;;;5043153;28;20048;-83
2021/03/12 14:29:13;;;;;;;4.10;1.50;;;;;;;;;;5040400;28;20039;-83
2021/03/12 14:31:41;;;;;;;3.58;1.52;;;;;;;;;;5074359;28;20045;-83
2021/03/12 14:34:06;;;;;;;5.57;1.58;;;;;;;;;;5056861;28;20033;-83
2021/03/12 14:36:32;;;;;;;6.00;1.23;;;;;;;;;;5074260;28;20047;-83
2021/03/12 14:38:58;;;;;;;3.53;1.00;;;;;;;;;;5056638;28;20036;-83
2021/03/12 14:41:27;;;;;;;4.80;1.05;;;;;;;;;;5040700;28;20040;-84
2021/03/12 14:43:53;;;;;;;4.50;1.65;;;;;;;;;;5056876;28;20032;-83